Time;durP1;ratioP1;P1;durP2;ratioP2;P2;SDS_P1;SDS_P2;PMS_P1;PMS_P2;Temp;Humidity;BMP_temperature;BMP_pressure;BME280_temperature;BME280_humidity;BME280_pressure;Samples;Min_cycle;Max_cycle;Signal;HPM_P1;HPM_P2
2022/03/10 00:02:07;;;;;;;18.77;11.70;;;1.80;74.30;;;;;;6044714;23;20165;-86
2022/03/10 00:04:33;;;;;;;20.77;11.67;;;1.70;74.50;;;;;;6044863;23;20158;-86
2022/03/10 00:07:00;;;;;;;18.50;11.23;;;1.60;74.80;;;;;;6070186;23;20167;-86
2022/03/10 00:09:26;;;;;;;18.93;11.60;;;1.60;75.10;;;;;;6044905;23;20166;-86
2022/03/10 00:11:51;;;;;;;16.10;11.17;;;1.60;75.30;;;;;;6068632;23;20612;-87
2022/03/10 00:14:17;;;;;;;17.47;10.77;;;1.60;75.50;;;;;;6068517;23;20163;-87
2022/03/10 00:16:43;;;;;;;17.93;10.27;;;1.70;75.70;;;;;;6069801;23;20722;-86
2022/03/10 00:19:08;;;;;;;18.07;11.17;;;1.70;75.80;;;;;;6070082;23;20251;-87
2022/03/10 00:21:34;;;;;;;15.77;10.93;;;1.60;76.00;;;;;;6068368;23;20191;-87
2022/03/10 00:23:59;;;;;;;14.67;10.53;;;1.50;76.20;;;;;;6068430;23;20504;-88
2022/03/10 00:26:25;;;;;;;15.97;10.17;;;1.50;76.40;;;;;;6068322;23;20172;-87
2022/03/10 00:28:51;;;;;;;19.20;11.33;;;1.40;76.60;;;;;;6069891;23;20159;-86
2022/03/10 00:31:16;;;;;;;18.87;10.63;;;1.50;76.80;;;;;;6068567;23;20176;-87
2022/03/10 00:33:42;;;;;;;14.90;9.77;;;1.50;76.90;;;;;;6068688;23;20196;-88
2022/03/10 00:36:07;;;;;;;18.77;9.83;;;1.50;77.00;;;;;;6068719;23;20199;-88
2022/03/10 00:38:33;;;;;;;12.33;9.50;;;1.40;77.20;;;;;;6068565;23;20162;-85
2022/03/10 00:40:59;;;;;;;17.40;10.40;;;1.40;77.40;;;;;;6070235;23;20576;-87
2022/03/10 00:43:26;;;;;;;13.27;9.97;;;1.40;77.70;;;;;;6068685;23;20192;-87
2022/03/10 00:45:51;;;;;;;17.30;10.10;;;1.50;77.70;;;;;;6068493;23;20175;-86
2022/03/10 00:48:17;;;;;;;13.03;9.27;;;1.50;77.90;;;;;;6070278;23;20158;-88
2022/03/10 00:50:42;;;;;;;16.00;9.83;;;1.60;77.90;;;;;;6068929;23;20185;-88
2022/03/10 00:53:08;;;;;;;16.80;9.93;;;1.60;77.90;;;;;;6068637;23;20160;-88
2022/03/10 00:55:34;;;;;;;13.17;9.57;;;1.60;78.00;;;;;;6069175;23;20181;-87
2022/03/10 00:57:59;;;;;;;18.23;10.53;;;1.60;78.20;;;;;;6072479;23;20154;-89
2022/03/10 01:00:28;;;;;;;15.77;10.17;;;1.60;78.20;;;;;;6073288;23;20174;-90
2022/03/10 01:02:54;;;;;;;14.37;9.60;;;1.50;78.10;;;;;;6072248;23;20158;-89
2022/03/10 01:05:19;;;;;;;20.17;11.40;;;1.60;78.10;;;;;;6073368;23;20175;-89
2022/03/10 01:07:45;;;;;;;13.00;10.03;;;1.60;78.10;;;;;;6073006;23;20153;-87
2022/03/10 01:10:12;;;;;;;14.30;9.33;;;1.60;78.10;;;;;;6073440;23;20164;-88
2022/03/10 02:18:22;;;;;;;17.47;9.53;;;1.30;78.60;;;;;;6073079;23;20157;-89
2022/03/10 02:20:48;;;;;;;13.33;9.97;;;1.20;78.80;;;;;;6070943;23;20190;-88
2022/03/10 02:23:13;;;;;;;14.97;9.37;;;1.20;78.90;;;;;;6070977;23;20165;-88
2022/03/10 02:25:41;;;;;;;13.57;9.30;;;1.10;79.10;;;;;;6070524;23;20175;-88
2022/03/10 02:28:07;;;;;;;14.33;10.00;;;1.10;79.10;;;;;;6070470;23;20177;-89
2022/03/10 02:30:34;;;;;;;14.80;9.77;;;1.10;79.10;;;;;;6070216;23;20165;-88
2022/03/10 02:32:59;;;;;;;19.83;9.87;;;1.10;79.20;;;;;;6070357;23;20163;-89
2022/03/10 02:35:25;;;;;;;13.03;9.20;;;1.10;79.20;;;;;;6071033;23;20210;-89
2022/03/10 02:37:51;;;;;;;13.07;9.23;;;1.00;79.30;;;;;;6071087;23;20162;-89
2022/03/10 02:40:17;;;;;;;15.17;9.90;;;1.00;79.50;;;;;;6070992;23;20183;-90
2022/03/10 02:42:42;;;;;;;16.47;10.23;;;1.00;79.70;;;;;;6070527;23;20162;-89
2022/03/10 02:45:09;;;;;;;13.93;9.70;;;0.90;79.70;;;;;;6070468;23;20233;-89
2022/03/10 02:47:35;;;;;;;14.40;9.23;;;0.90;79.80;;;;;;6070499;23;20240;-89
2022/03/10 02:50:03;;;;;;;14.57;9.80;;;0.90;79.90;;;;;;6070593;23;20156;-88
2022/03/10 02:52:29;;;;;;;13.43;9.77;;;0.90;79.80;;;;;;6071309;23;20162;-87
2022/03/10 02:54:54;;;;;;;16.00;9.67;;;0.80;79.90;;;;;;6071285;23;20158;-88
2022/03/10 02:57:20;;;;;;;17.77;9.80;;;0.80;80.10;;;;;;6070119;23;20164;-88
2022/03/10 02:59:45;;;;;;;15.57;9.67;;;0.80;80.30;;;;;;6071789;23;20236;-88
2022/03/10 03:02:12;;;;;;;14.27;9.23;;;0.90;80.50;;;;;;6070069;23;20211;-88
2022/03/10 03:04:37;;;;;;;16.43;11.17;;;1.00;80.50;;;;;;6070309;23;20162;-88
2022/03/10 03:07:03;;;;;;;14.47;10.33;;;1.10;80.40;;;;;;6070153;23;20701;-88
2022/03/10 03:09:29;;;;;;;18.07;9.80;;;1.20;80.10;;;;;;6070652;23;20153;-85
2022/03/10 03:11:54;;;;;;;16.70;10.03;;;1.30;80.00;;;;;;6070387;23;20236;-88
2022/03/10 03:14:23;;;;;;;17.20;9.73;;;1.30;79.80;;;;;;6069721;23;20167;-89
2022/03/10 03:16:50;;;;;;;15.27;9.83;;;1.40;79.70;;;;;;6069582;23;20199;-87
2022/03/10 03:19:16;;;;;;;16.37;10.00;;;1.30;79.50;;;;;;6069942;23;20186;-88
2022/03/10 03:21:41;;;;;;;13.93;10.00;;;1.40;79.50;;;;;;6069614;23;20252;-88
2022/03/10 03:24:07;;;;;;;18.53;10.87;;;1.40;79.50;;;;;;6069603;23;20155;-88
2022/03/10 03:26:32;;;;;;;19.37;10.70;;;1.30;79.50;;;;;;6071608;23;20637;-88
2022/03/10 03:28:58;;;;;;;15.77;10.67;;;1.30;79.70;;;;;;6069893;23;20184;-88
2022/03/10 03:31:24;;;;;;;16.67;10.50;;;1.20;79.90;;;;;;6069723;23;20291;-88
2022/03/10 03:33:50;;;;;;;15.60;10.13;;;1.20;80.00;;;;;;6069993;23;20160;-87
2022/03/10 03:36:15;;;;;;;16.07;10.80;;;1.30;80.20;;;;;;6070119;23;20180;-87
2022/03/10 03:38:41;;;;;;;18.07;11.03;;;1.30;80.20;;;;;;6070337;23;20162;-88
2022/03/10 03:41:06;;;;;;;18.50;10.23;;;1.30;80.10;;;;;;6071235;23;20252;-88
2022/03/10 03:43:32;;;;;;;14.63;8.90;;;1.30;80.10;;;;;;6070878;23;20163;-88
2022/03/10 03:45:58;;;;;;;15.53;10.67;;;1.30;79.90;;;;;;6071383;23;20185;-88
2022/03/10 03:48:26;;;;;;;16.87;9.50;;;1.40;79.90;;;;;;6070333;23;20165;-88
2022/03/10 03:50:52;;;;;;;16.00;9.67;;;1.50;79.60;;;;;;6071711;23;20154;-88
2022/03/10 03:53:18;;;;;;;15.23;10.43;;;1.60;79.30;;;;;;6071487;23;20603;-88
2022/03/10 03:55:43;;;;;;;12.60;9.37;;;1.60;79.10;;;;;;6070527;23;20264;-89
2022/03/10 03:58:09;;;;;;;17.30;10.10;;;1.60;79.10;;;;;;6070239;23;20159;-87
2022/03/10 04:00:36;;;;;;;18.43;11.13;;;1.50;79.20;;;;;;6069713;23;20206;-88
2022/03/10 04:03:09;;;;;;;18.03;10.63;;;1.40;79.30;;;;;;6069782;23;20168;-88
2022/03/10 04:05:36;;;;;;;14.90;10.80;;;1.40;79.30;;;;;;6069525;23;20183;-88
2022/03/10 04:08:01;;;;;;;15.73;10.40;;;1.30;79.40;;;;;;6068847;23;20158;-88
2022/03/10 04:10:27;;;;;;;19.97;10.67;;;1.40;79.60;;;;;;6070602;23;20149;-87
2022/03/10 04:12:52;;;;;;;17.13;10.37;;;1.30;79.60;;;;;;6069654;23;20500;-88
2022/03/10 04:15:18;;;;;;;16.13;10.77;;;1.30;79.70;;;;;;6069199;23;20694;-88
2022/03/10 04:17:43;;;;;;;17.03;10.17;;;1.30;79.70;;;;;;6069606;23;20185;-88
2022/03/10 04:20:13;;;;;;;16.43;11.10;;;1.30;79.60;;;;;;6069872;23;20180;-87
2022/03/10 04:22:39;;;;;;;18.07;10.30;;;1.30;79.70;;;;;;6069961;23;20627;-87
2022/03/10 04:25:06;;;;;;;15.67;10.53;;;1.20;79.90;;;;;;6069560;23;20186;-88
2022/03/10 04:27:32;;;;;;;14.27;10.10;;;1.30;79.90;;;;;;6071262;23;20163;-88
2022/03/10 04:29:57;;;;;;;16.40;10.40;;;1.30;79.90;;;;;;6071309;23;20242;-88
2022/03/10 04:32:23;;;;;;;16.20;10.20;;;1.30;79.90;;;;;;6071252;23;20185;-87
2022/03/10 04:34:49;;;;;;;18.90;11.23;;;1.30;79.80;;;;;;6072217;23;20151;-88
2022/03/10 04:37:14;;;;;;;19.77;11.00;;;1.40;79.80;;;;;;6071045;23;20163;-88
2022/03/10 04:39:40;;;;;;;18.07;10.90;;;1.40;79.70;;;;;;6072554;23;20154;-88
2022/03/10 04:42:06;;;;;;;17.63;11.60;;;1.50;79.60;;;;;;6072881;23;20201;-88
2022/03/10 04:44:31;;;;;;;16.80;10.87;;;1.40;79.60;;;;;;6072825;23;20149;-88
2022/03/10 04:46:57;;;;;;;16.73;11.50;;;1.40;79.70;;;;;;6071461;23;20661;-87
2022/03/10 04:49:23;;;;;;;15.53;10.67;;;1.40;79.70;;;;;;6071454;23;20173;-88
2022/03/10 04:51:48;;;;;;;19.30;11.00;;;1.40;79.70;;;;;;6070947;23;20183;-88
2022/03/10 04:54:14;;;;;;;18.83;11.43;;;1.40;79.70;;;;;;6071361;23;20162;-88
2022/03/10 04:56:39;;;;;;;16.70;11.77;;;1.40;79.60;;;;;;6070874;23;20205;-87
2022/03/10 04:59:05;;;;;;;19.97;11.03;;;1.40;79.70;;;;;;6072655;23;20253;-88
2022/03/10 05:01:30;;;;;;;19.57;11.57;;;1.40;79.60;;;;;;6069705;23;20178;-88
2022/03/10 05:03:56;;;;;;;19.00;10.80;;;1.30;79.70;;;;;;6071790;23;20157;-88
2022/03/10 05:06:22;;;;;;;17.00;10.97;;;1.30;79.70;;;;;;6072832;23;20170;-87
2022/03/10 05:08:48;;;;;;;19.40;11.67;;;1.40;79.50;;;;;;6071773;23;20242;-88
2022/03/10 05:11:14;;;;;;;17.03;11.40;;;1.40;79.50;;;;;;6073062;23;20157;-88
2022/03/10 05:13:40;;;;;;;18.80;11.93;;;1.40;79.20;;;;;;6071888;23;20720;-88
2022/03/10 05:16:05;;;;;;;15.60;11.50;;;1.50;79.20;;;;;;6069127;23;20206;-93
2022/03/10 05:18:31;;;;;;;16.20;11.33;;;1.50;79.20;;;;;;6068901;23;20171;-92
2022/03/10 05:20:56;;;;;;;16.43;10.40;;;1.40;79.10;;;;;;6069389;23;20203;-91
2022/03/10 05:23:22;;;;;;;16.67;11.03;;;1.40;79.10;;;;;;6069337;23;20161;-92
2022/03/10 05:25:48;;;;;;;18.10;10.20;;;1.40;79.20;;;;;;6069661;23;20162;-92
2022/03/10 05:28:14;;;;;;;16.73;11.30;;;1.40;79.20;;;;;;6068818;23;20212;-92
2022/03/10 05:30:45;;;;;;;21.77;11.30;;;1.40;79.20;;;;;;6068958;23;20208;-92
2022/03/10 05:33:12;;;;;;;16.17;10.33;;;1.40;79.00;;;;;;6069169;23;20227;-92
2022/03/10 05:35:38;;;;;;;18.90;11.00;;;1.50;78.80;;;;;;6068710;23;20161;-92
2022/03/10 05:38:04;;;;;;;19.60;10.50;;;1.40;78.70;;;;;;6069289;23;20181;-92
2022/03/10 05:40:30;;;;;;;14.93;10.90;;;1.40;78.80;;;;;;6068741;23;20183;-92
2022/03/10 05:42:56;;;;;;;19.77;11.13;;;1.40;78.80;;;;;;6069191;23;20285;-92
2022/03/10 05:45:23;;;;;;;16.27;11.70;;;1.30;78.90;;;;;;6068466;23;20428;-92
2022/03/10 05:47:50;;;;;;;14.60;10.63;;;1.30;78.90;;;;;;6068519;23;20174;-92
2022/03/10 05:50:17;;;;;;;17.40;11.13;;;1.30;79.00;;;;;;6068437;23;20505;-92
2022/03/10 05:52:45;;;;;;;24.00;11.97;;;1.30;79.10;;;;;;6068266;23;20159;-92
2022/03/10 05:55:11;;;;;;;17.83;12.10;;;1.30;79.10;;;;;;6068471;23;20251;-92
2022/03/10 05:57:37;;;;;;;17.20;11.30;;;1.20;79.20;;;;;;6068019;23;20206;-92
2022/03/10 06:00:03;;;;;;;15.37;10.53;;;1.30;79.20;;;;;;6067791;23;20190;-91
2022/03/10 06:02:29;;;;;;;19.53;11.03;;;1.30;79.10;;;;;;6067903;23;20163;-92
2022/03/10 06:04:59;;;;;;;16.97;11.77;;;1.30;79.10;;;;;;6068068;23;20156;-92
2022/03/10 06:07:25;;;;;;;18.70;11.00;;;1.30;79.00;;;;;;6067755;23;20179;-91
2022/03/10 06:09:50;;;;;;;16.13;11.17;;;1.30;79.00;;;;;;6068165;23;20538;-91
2022/03/10 06:12:24;;;;;;;17.07;11.73;;;1.30;79.00;;;;;;6068166;23;20182;-92
2022/03/10 06:15:00;;;;;;;16.83;11.07;;;1.50;78.80;;;;;;6067934;23;20156;-92
2022/03/10 06:17:26;;;;;;;20.10;11.27;;;1.40;78.80;;;;;;6085041;23;20213;-92
2022/03/10 06:19:52;;;;;;;23.20;11.70;;;1.50;78.70;;;;;;6073848;23;20155;-92
2022/03/10 06:22:18;;;;;;;21.43;12.47;;;1.60;78.50;;;;;;6076481;23;20158;-92
2022/03/10 06:24:47;;;;;;;14.73;10.80;;;1.70;78.20;;;;;;6073813;23;20241;-90
2022/03/10 06:27:14;;;;;;;18.73;12.17;;;1.80;77.70;;;;;;6074474;23;20181;-92
2022/03/10 06:29:41;;;;;;;18.37;11.60;;;1.80;77.50;;;;;;6075420;23;20154;-92
2022/03/10 06:32:07;;;;;;;18.07;11.87;;;2.00;77.10;;;;;;6075848;23;20164;-92
2022/03/10 06:34:33;;;;;;;21.20;12.10;;;2.00;77.00;;;;;;6075936;23;20679;-92
2022/03/10 06:36:59;;;;;;;18.43;12.67;;;2.00;77.00;;;;;;6077542;23;20179;-92
2022/03/10 06:39:26;;;;;;;18.40;12.13;;;2.00;76.80;;;;;;6083600;23;20183;-92
2022/03/10 06:41:51;;;;;;;17.43;11.53;;;2.10;76.70;;;;;;6082205;23;20187;-92
2022/03/10 06:44:17;;;;;;;18.53;11.90;;;2.10;76.50;;;;;;6080886;23;20165;-92
2022/03/10 06:46:43;;;;;;;18.87;12.40;;;2.20;76.40;;;;;;6086050;23;20229;-92
2022/03/10 06:49:09;;;;;;;17.67;12.43;;;2.30;76.50;;;;;;6088023;23;20159;-93
2022/03/10 06:51:34;;;;;;;15.10;10.70;;;2.30;76.10;;;;;;6087525;23;20165;-93
2022/03/10 06:54:01;;;;;;;17.73;11.40;;;2.40;75.70;;;;;;6088146;23;20164;-92
2022/03/10 06:56:27;;;;;;;18.63;11.20;;;2.50;75.30;;;;;;6087601;23;20182;-92
2022/03/10 06:58:52;;;;;;;18.27;10.93;;;2.60;75.40;;;;;;6085999;23;20168;-92
2022/03/10 07:01:20;;;;;;;18.77;11.47;;;2.70;75.30;;;;;;6083196;23;20199;-92
2022/03/10 07:03:45;;;;;;;23.47;12.07;;;2.70;75.40;;;;;;6080801;23;20216;-92
2022/03/10 07:06:11;;;;;;;16.90;11.27;;;2.80;75.30;;;;;;6080189;23;20164;-92
2022/03/10 07:08:36;;;;;;;17.57;12.33;;;2.90;75.30;;;;;;6078498;23;20158;-92
2022/03/10 07:11:02;;;;;;;15.57;11.43;;;2.90;75.00;;;;;;6080351;23;20168;-92
2022/03/10 07:13:28;;;;;;;14.27;10.33;;;3.00;74.90;;;;;;6083718;23;20166;-93
2022/03/10 07:15:53;;;;;;;20.03;12.10;;;3.10;75.00;;;;;;6085190;23;20185;-92
2022/03/10 07:18:19;;;;;;;19.33;10.80;;;3.10;75.10;;;;;;6106500;23;20196;-93
2022/03/10 07:20:45;;;;;;;16.63;11.13;;;3.20;75.00;;;;;;6108823;23;20185;-92
2022/03/10 07:23:10;;;;;;;23.43;11.93;;;3.30;74.40;;;;;;6110537;23;20232;-92
2022/03/10 07:25:36;;;;;;;20.10;11.33;;;3.40;73.40;;;;;;6106780;23;20591;-92
2022/03/10 07:28:02;;;;;;;19.13;10.80;;;3.50;73.20;;;;;;6110431;23;20182;-92
2022/03/10 07:30:27;;;;;;;15.40;11.00;;;3.60;72.40;;;;;;6107526;23;20162;-93
2022/03/10 07:32:53;;;;;;;15.80;10.70;;;3.70;72.20;;;;;;6107839;23;20166;-92
2022/03/10 07:35:18;;;;;;;21.77;10.90;;;3.80;71.80;;;;;;6112642;23;20143;-93
2022/03/10 07:37:46;;;;;;;14.90;10.80;;;3.90;70.90;;;;;;6107081;23;20183;-93
2022/03/10 07:40:15;;;;;;;22.97;10.93;;;3.90;70.90;;;;;;6107445;23;20178;-92
2022/03/10 07:42:41;;;;;;;20.63;11.30;;;4.00;70.80;;;;;;6109380;23;20255;-93
2022/03/10 07:45:07;;;;;;;14.17;10.80;;;4.00;71.00;;;;;;6107839;23;20155;-93
2022/03/10 07:47:33;;;;;;;18.33;10.37;;;4.10;70.40;;;;;;6110614;23;20666;-93
2022/03/10 07:49:58;;;;;;;19.27;10.83;;;4.30;69.70;;;;;;6109778;23;20155;-93
2022/03/10 07:52:24;;;;;;;17.07;11.27;;;4.40;69.60;;;;;;6112542;23;20170;-93
2022/03/10 07:54:49;;;;;;;18.53;11.90;;;4.40;69.40;;;;;;6106700;23;20160;-93
2022/03/10 07:57:15;;;;;;;22.50;11.80;;;4.50;69.30;;;;;;6106266;23;20182;-93
2022/03/10 07:59:41;;;;;;;27.03;12.20;;;4.70;69.20;;;;;;6110022;23;20237;-93
2022/03/10 08:02:07;;;;;;;21.27;12.67;;;4.80;68.90;;;;;;6111180;23;20282;-93
2022/03/10 08:04:32;;;;;;;25.40;13.47;;;4.80;68.60;;;;;;6113789;23;20155;-93
2022/03/10 08:06:58;;;;;;;21.80;12.73;;;5.00;69.00;;;;;;6112701;23;20178;-93
2022/03/10 08:09:23;;;;;;;25.07;12.87;;;5.10;68.40;;;;;;6111085;23;20159;-93
2022/03/10 08:11:49;;;;;;;17.40;12.07;;;5.20;68.20;;;;;;6110663;23;20507;-93
2022/03/10 08:14:15;;;;;;;17.90;9.80;;;5.30;67.40;;;;;;6116166;23;20215;-93
2022/03/10 08:16:41;;;;;;;19.27;10.20;;;5.50;67.30;;;;;;6114193;23;20195;-93
2022/03/10 08:19:09;;;;;;;17.17;10.53;;;5.60;67.10;;;;;;6113085;23;20158;-93
2022/03/10 08:21:35;;;;;;;23.03;10.10;;;5.80;66.50;;;;;;6110684;23;20212;-92
2022/03/10 08:24:00;;;;;;;18.93;9.80;;;5.90;66.30;;;;;;6112718;23;20154;-93
2022/03/10 08:26:26;;;;;;;17.03;10.17;;;6.00;65.40;;;;;;6114665;23;20176;-93
2022/03/10 08:28:56;;;;;;;17.10;10.17;;;6.10;65.30;;;;;;6107919;23;20220;-93
2022/03/10 08:31:22;;;;;;;14.10;9.57;;;6.20;65.10;;;;;;6112272;23;20250;-92
2022/03/10 08:33:48;;;;;;;21.60;9.07;;;6.40;65.10;;;;;;6110889;23;20158;-92
2022/03/10 08:36:14;;;;;;;19.20;8.73;;;6.50;63.80;;;;;;6111494;23;20233;-92
2022/03/10 08:38:40;;;;;;;15.17;9.00;;;6.60;63.10;;;;;;6109802;23;20222;-93
2022/03/10 08:41:06;;;;;;;17.77;9.47;;;6.70;62.20;;;;;;6111790;23;20186;-93
2022/03/10 08:43:32;;;;;;;20.17;11.13;;;6.50;62.20;;;;;;6113403;23;20225;-92
2022/03/10 08:45:58;;;;;;;14.53;8.93;;;6.60;62.20;;;;;;6115529;23;20159;-94
2022/03/10 08:48:24;;;;;;;14.57;9.60;;;6.80;61.60;;;;;;6115827;23;20162;-93
2022/03/10 08:50:50;;;;;;;15.80;9.00;;;6.90;61.10;;;;;;6115564;23;20210;-93
2022/03/10 08:53:16;;;;;;;16.57;9.10;;;7.10;61.40;;;;;;6114863;23;20165;-93
2022/03/10 08:55:42;;;;;;;24.30;9.80;;;7.10;60.20;;;;;;6114047;23;20155;-92
2022/03/10 08:58:08;;;;;;;15.63;9.03;;;7.20;60.10;;;;;;6113425;23;20171;-93
2022/03/10 09:00:34;;;;;;;14.83;7.93;;;7.30;59.80;;;;;;6118547;23;20189;-93
2022/03/10 09:03:00;;;;;;;13.53;8.43;;;7.40;60.20;;;;;;6116824;23;20158;-93
2022/03/10 09:05:26;;;;;;;12.93;9.17;;;7.50;59.60;;;;;;6118681;23;20139;-93
2022/03/10 09:07:52;;;;;;;12.73;9.23;;;7.60;58.80;;;;;;6118071;23;20253;-93
2022/03/10 09:10:18;;;;;;;14.13;8.57;;;7.60;59.20;;;;;;6117142;23;20162;-93
2022/03/10 09:12:44;;;;;;;12.37;8.90;;;7.70;58.40;;;;;;6118587;23;20186;-93
2022/03/10 09:15:10;;;;;;;14.00;9.07;;;7.80;58.30;;;;;;6114849;23;20195;-93
2022/03/10 09:17:36;;;;;;;18.90;9.40;;;7.90;58.00;;;;;;6113389;23;20190;-93
2022/03/10 09:20:16;;;;;;;14.97;8.47;;;8.00;57.70;;;;;;6121188;23;20191;-93
2022/03/10 09:22:43;;;;;;;15.70;8.97;;;8.10;57.10;;;;;;6119482;23;20162;-94
2022/03/10 09:25:12;;;;;;;14.13;8.83;;;8.20;57.50;;;;;;6118295;23;20177;-93
2022/03/10 09:27:39;;;;;;;26.27;9.17;;;8.30;56.30;;;;;;6117304;23;20185;-93
2022/03/10 09:30:10;;;;;;;16.27;9.07;;;8.30;55.90;;;;;;6122043;23;20158;-93
2022/03/10 09:32:38;;;;;;;14.90;9.27;;;8.40;56.80;;;;;;6121578;23;20135;-94
2022/03/10 09:35:07;;;;;;;19.00;9.43;;;8.50;56.20;;;;;;6122206;23;20206;-93
2022/03/10 09:37:36;;;;;;;12.60;8.90;;;8.60;57.10;;;;;;6117951;23;20155;-93
2022/03/10 09:40:03;;;;;;;18.67;9.10;;;8.80;55.60;;;;;;6117487;23;20182;-93
2022/03/10 09:42:32;;;;;;;17.13;8.83;;;8.90;56.80;;;;;;6120852;23;20146;-93
2022/03/10 09:45:00;;;;;;;16.37;9.17;;;8.90;56.10;;;;;;6118318;23;20163;-93
2022/03/10 09:47:27;;;;;;;13.97;8.70;;;8.90;55.50;;;;;;6118933;23;20179;-93
2022/03/10 09:49:53;;;;;;;20.13;9.00;;;9.10;55.80;;;;;;6122093;23;20234;-92
2022/03/10 09:52:21;;;;;;;14.50;7.83;;;9.20;55.50;;;;;;6121744;23;20146;-93
2022/03/10 09:54:53;;;;;;;18.97;9.10;;;9.30;55.70;;;;;;6120300;23;20147;-93
2022/03/10 09:57:22;;;;;;;15.73;8.57;;;9.30;55.00;;;;;;6119451;23;20218;-93
2022/03/10 09:59:53;;;;;;;11.63;8.67;;;9.50;54.60;;;;;;6118884;23;20182;-93
2022/03/10 10:02:21;;;;;;;11.17;8.90;;;9.60;54.10;;;;;;6110848;23;20150;-94
2022/03/10 10:07:32;;;;;;;15.30;9.37;;;9.70;53.20;;;;;;6078296;23;20215;-91
2022/03/10 10:09:58;;;;;;;16.17;9.83;;;9.80;52.30;;;;;;6070214;23;20163;-90
2022/03/10 10:12:26;;;;;;;17.47;10.10;;;9.90;52.90;;;;;;6069134;23;20159;-91
2022/03/10 10:14:52;;;;;;;15.23;9.83;;;9.90;52.00;;;;;;6068250;23;20162;-90
2022/03/10 10:17:28;;;;;;;14.07;10.50;;;10.00;51.60;;;;;;6067950;23;20183;-90
2022/03/10 10:19:56;;;;;;;18.57;9.90;;;10.00;51.40;;;;;;6067926;23;20225;-90
2022/03/10 10:22:24;;;;;;;15.10;9.83;;;10.10;52.90;;;;;;6067959;23;20254;-90
2022/03/10 10:24:51;;;;;;;12.30;9.97;;;10.20;52.20;;;;;;6070152;23;20155;-90
2022/03/10 10:27:25;;;;;;;15.63;10.03;;;10.30;51.40;;;;;;6070371;23;20179;-91
2022/03/10 10:29:53;;;;;;;14.97;10.40;;;10.30;51.10;;;;;;6072625;23;20162;-90
2022/03/10 10:32:44;;;;;;;15.17;10.77;;;10.40;51.00;;;;;;6071404;23;20179;-91
2022/03/10 10:35:13;;;;;;;17.17;10.13;;;10.50;50.60;;;;;;6071445;23;20147;-90
2022/03/10 10:37:48;;;;;;;13.70;9.13;;;10.50;50.50;;;;;;6069999;23;20187;-89
2022/03/10 10:40:19;;;;;;;14.50;9.30;;;10.30;50.90;;;;;;6074776;23;20226;-90
2022/03/10 10:42:45;;;;;;;19.40;10.00;;;10.50;50.30;;;;;;6071891;23;20720;-89
2022/03/10 10:45:35;;;;;;;15.70;9.80;;;10.70;50.00;;;;;;6071264;23;20156;-90
2022/03/10 10:48:08;;;;;;;15.37;9.77;;;10.70;49.90;;;;;;6071806;23;20176;-90
2022/03/10 10:50:45;;;;;;;14.10;10.13;;;10.70;49.40;;;;;;6073180;23;20206;-90
2022/03/10 10:53:30;;;;;;;18.10;10.07;;;10.80;50.10;;;;;;6073933;23;20152;-90
2022/03/10 10:55:57;;;;;;;16.53;9.93;;;10.80;49.40;;;;;;6076748;23;20154;-90
2022/03/10 10:58:25;;;;;;;22.00;10.73;;;10.90;50.90;;;;;;6077909;23;20627;-91
2022/03/10 11:00:51;;;;;;;12.57;9.60;;;11.10;49.80;;;;;;6077531;23;20238;-90
2022/03/10 11:03:24;;;;;;;14.73;9.53;;;10.90;49.10;;;;;;6071197;23;20159;-90
2022/03/10 11:05:51;;;;;;;17.30;9.77;;;11.00;49.70;;;;;;6073928;23;20190;-90
2022/03/10 11:08:18;;;;;;;19.63;11.60;;;11.10;48.40;;;;;;6100179;23;20245;-89
2022/03/10 11:11:50;;;;;;;;;;;;;;;;;;;;;
2022/03/10 11:14:16;;;;;;;19.90;11.10;;;11.30;49.70;;;;;;6100765;23;20654;-90
2022/03/10 11:16:43;;;;;;;16.50;10.13;;;11.40;50.00;;;;;;6098776;23;20575;-90
2022/03/10 11:19:12;;;;;;;18.03;9.63;;;11.20;49.10;;;;;;6056348;23;20215;-91
2022/03/10 11:22:08;;;;;;;15.60;10.37;;;11.30;48.60;;;;;;6014934;23;20184;-91
2022/03/10 11:24:40;;;;;;;15.73;10.03;;;11.30;49.00;;;;;;6001626;23;20160;-92
2022/03/10 11:27:17;;;;;;;16.50;10.07;;;11.50;47.70;;;;;;6038404;23;20156;-92
2022/03/10 11:29:48;;;;;;;16.80;10.33;;;11.50;48.40;;;;;;6014671;23;20176;-92
2022/03/10 11:32:14;;;;;;;13.90;9.20;;;11.70;48.30;;;;;;6015356;23;20175;-92
2022/03/10 11:34:53;;;;;;;17.57;10.43;;;11.30;47.20;;;;;;6015392;23;20160;-92
2022/03/10 11:37:43;;;;;;;16.50;10.33;;;11.40;49.40;;;;;;6014572;23;20175;-92
2022/03/10 11:40:14;;;;;;;16.60;11.67;;;11.50;48.90;;;;;;6014837;23;20160;-91
2022/03/10 11:42:41;;;;;;;19.37;9.93;;;11.50;48.90;;;;;;6015043;23;20152;-91
2022/03/10 11:45:17;;;;;;;18.60;10.43;;;11.50;48.10;;;;;;6014973;23;20164;-91
2022/03/10 11:47:44;;;;;;;15.87;9.37;;;11.30;48.30;;;;;;6015284;23;20152;-92
2022/03/10 11:50:24;;;;;;;15.70;10.67;;;11.40;48.90;;;;;;6015025;23;20224;-92
2022/03/10 11:52:58;;;;;;;22.03;11.07;;;11.50;48.30;;;;;;6014622;23;20159;-91
2022/03/10 11:55:54;;;;;;;14.70;10.03;;;11.40;48.10;;;;;;6015058;23;20148;-92
2022/03/10 11:58:30;;;;;;;16.00;11.97;;;11.60;48.20;;;;;;6015379;23;20176;-90
2022/03/10 12:01:00;;;;;;;15.10;9.73;;;11.70;48.40;;;;;;6014298;23;20180;-90
2022/03/10 12:03:46;;;;;;;14.90;9.63;;;11.70;47.90;;;;;;6015633;23;20499;-91
2022/03/10 12:06:17;;;;;;;15.60;10.20;;;11.70;47.40;;;;;;6015509;23;20594;-92
2022/03/10 12:09:02;;;;;;;17.03;9.87;;;11.80;47.40;;;;;;6038809;23;20176;-92
2022/03/10 12:11:47;;;;;;;15.10;9.97;;;12.00;46.80;;;;;;6015785;23;20156;-92
2022/03/10 12:14:32;;;;;;;16.73;10.23;;;12.30;46.30;;;;;;6014696;23;20601;-93
2022/03/10 12:16:58;;;;;;;13.07;9.70;;;12.30;45.90;;;;;;6015229;23;20175;-92
2022/03/10 12:20:01;;;;;;;22.83;10.63;;;12.30;46.30;;;;;;6056274;23;20647;-90
2022/03/10 12:22:28;;;;;;;18.00;10.27;;;12.20;46.40;;;;;;6066738;23;20249;-90
2022/03/10 12:25:20;;;;;;;12.73;8.53;;;12.10;46.20;;;;;;6067965;23;20211;-90
2022/03/10 12:27:51;;;;;;;13.83;9.37;;;12.30;43.60;;;;;;6090782;23;20218;-91
2022/03/10 12:30:25;;;;;;;13.17;9.37;;;12.40;46.10;;;;;;6067540;23;20219;-91
2022/03/10 12:32:53;;;;;;;13.97;8.70;;;12.50;45.30;;;;;;6067480;23;20207;-92
2022/03/10 12:35:33;;;;;;;15.13;9.73;;;12.50;43.30;;;;;;6067859;23;20156;-91
2022/03/10 12:37:58;;;;;;;16.40;9.87;;;12.60;42.90;;;;;;6066674;23;20213;-91
2022/03/10 12:40:26;;;;;;;17.90;10.27;;;12.50;43.10;;;;;;6067269;23;20183;-92
2022/03/10 12:43:07;;;;;;;11.77;8.70;;;12.70;44.30;;;;;;6068505;23;20604;-91
2022/03/10 12:45:41;;;;;;;12.20;8.67;;;12.50;42.80;;;;;;6067711;23;20250;-91
2022/03/10 12:48:33;;;;;;;12.63;9.13;;;12.50;43.10;;;;;;6040651;23;20180;-92
2022/03/10 12:50:59;;;;;;;15.93;10.03;;;12.60;43.70;;;;;;6020677;23;20219;-92
2022/03/10 12:53:31;;;;;;;12.70;8.57;;;12.60;45.50;;;;;;6040703;23;20160;-92
2022/03/10 12:55:57;;;;;;;16.60;10.60;;;12.60;44.00;;;;;;6040516;23;20168;-92
2022/03/10 12:58:32;;;;;;;15.27;8.43;;;12.60;44.70;;;;;;6040336;23;20184;-92
2022/03/10 13:01:09;;;;;;;14.87;9.93;;;12.80;42.70;;;;;;6042223;23;20195;-92
2022/03/10 13:03:36;;;;;;;10.80;7.50;;;12.80;42.70;;;;;;6040752;23;20226;-91
2022/03/10 13:06:07;;;;;;;12.20;8.57;;;12.90;42.40;;;;;;6039507;23;20164;-91
2022/03/10 13:08:33;;;;;;;20.57;8.57;;;13.00;42.40;;;;;;6039520;23;20176;-91
2022/03/10 13:11:01;;;;;;;11.93;9.03;;;12.80;40.00;;;;;;6039469;23;20188;-91
2022/03/10 13:13:29;;;;;;;12.03;7.73;;;12.70;42.40;;;;;;6039523;23;20212;-91
2022/03/10 13:15:59;;;;;;;12.77;7.00;;;12.80;40.20;;;;;;6039828;23;20160;-91
2022/03/10 13:18:25;;;;;;;9.77;6.23;;;12.60;40.70;;;;;;6040128;23;20199;-91
2022/03/10 13:20:50;;;;;;;11.07;7.00;;;12.60;40.00;;;;;;6039440;23;20547;-91
2022/03/10 13:23:23;;;;;;;11.20;7.70;;;12.60;40.70;;;;;;6039830;23;20672;-91
2022/03/10 13:25:50;;;;;;;12.17;7.77;;;12.70;40.50;;;;;;6039510;23;20590;-91
2022/03/10 13:28:16;;;;;;;12.63;7.73;;;12.60;40.00;;;;;;6039488;23;20180;-92
2022/03/10 13:30:43;;;;;;;16.07;7.77;;;12.80;40.60;;;;;;6039546;23;20559;-91
2022/03/10 13:33:10;;;;;;;13.30;7.50;;;12.90;40.00;;;;;;6039485;23;20160;-91
2022/03/10 13:35:39;;;;;;;12.37;7.23;;;12.80;39.20;;;;;;6039942;23;20583;-91
2022/03/10 13:38:05;;;;;;;12.03;7.90;;;12.70;38.10;;;;;;6040313;23;20184;-91
2022/03/10 13:40:34;;;;;;;17.53;7.90;;;12.60;38.20;;;;;;6039801;23;20734;-91
2022/03/10 13:43:00;;;;;;;11.60;7.30;;;12.70;40.40;;;;;;6040259;23;20156;-91
2022/03/10 13:45:26;;;;;;;13.23;7.83;;;12.70;38.60;;;;;;6039465;23;20156;-91
2022/03/10 13:50:35;;;;;;;11.47;7.83;;;12.70;38.50;;;;;;6076464;23;20179;-93
2022/03/10 13:53:11;;;;;;;14.40;7.77;;;12.80;39.20;;;;;;6058952;23;20139;-93
2022/03/10 13:55:41;;;;;;;10.60;7.93;;;12.70;37.90;;;;;;6053649;23;20580;-92
2022/03/10 13:58:12;;;;;;;13.33;8.20;;;12.70;37.90;;;;;;6053815;23;20175;-93